Edgewood, New York
Current Conditions -  °F | °C
As of 8:56 AM on Monday 20 Oct 2014 (Local Time) from KISP Reporting Station
Broken Clouds Broken Clouds  
Wind Chill:   Ceiling: 26000
Heat Index:   Visibility: 10mi
Dew Point:   Wind: 7mph
Humidity: 65%   Direction: 260°W
Pressure: 30.11"   Gusts: NA
Location:  40.7837°N, 73.252°W
Report Text: KISP 201256Z 26006KT 10SM FEW035 FEW120 BKN260 07/01 A3011 RMK AO2 SLP196 T00670006
Loading
Personal Weather Stations






























Interactive Weather Map
Tropical Storm Tracking
New forecast layout! Learn more

10-Day Weather Forecast

Advertisements
Track Severe Weather on mobile